• Join FlightAware (Why Join?)
  • Login
  • US Flag 
05:05PM EDT


 

Airport Tracker/Info


-or-


 

Live Flight TrackerFlight Track Log ✈ GTI4241 ✈ 23-Feb-2014 ✈ LIBG / TAR - KJFK

Flight Track Log - Related Links

Times and Time Zones

All times are in EST time to prevent confusion due to time zone crossing. See the GTI4241 flight status page for this flight to view local times or setup timezone preferences in your user account.

Time Position Orientation Groundspeed Altitude Reporting Facility
EST Latitude Longitude Course Direction KTS MPH feet Rate Location/Type
10:57AM 55.3211 -16.3738 293° West  Level FlightAware Approximate
10:58AM 55.3613 -16.5705 290° West  Level FlightAware Approximate
10:59AM 55.4012 -16.7676 290° West  Level FlightAware Approximate
11:00AM 55.4407 -16.9650 290° West  Level FlightAware Approximate
11:01AM 55.4800 -17.1629 289° West  Level FlightAware Approximate
11:02AM 55.5189 -17.3611 289° West  Level FlightAware Approximate
11:03AM 55.5575 -17.5597 289° West  Level FlightAware Approximate
11:04AM 55.5958 -17.7588 289° West  Level FlightAware Approximate
11:05AM 55.6338 -17.9582 289° West  Level FlightAware Approximate
11:06AM 55.6714 -18.1579 289° West  Level FlightAware Approximate
11:07AM 55.7087 -18.3581 288° West  Level FlightAware Approximate
11:08AM 55.7457 -18.5587 288° West  Level FlightAware Approximate
11:09AM 55.7824 -18.7596 288° West  Level FlightAware Approximate
11:10AM 55.8187 -18.9609 288° West  Level FlightAware Approximate
11:11AM 55.8547 -19.1626 288° West  Level FlightAware Approximate
11:12AM 55.8904 -19.3647 288° West  Level FlightAware Approximate
11:13AM 55.9257 -19.5671 287° West  Level FlightAware Approximate
11:14AM 55.9608 -19.7699 287° West  Level FlightAware Approximate
11:14AM 56.0000 -20.0000 284° West 438 504 34,000  Level ETMS Enhanced Traffic Management System
11:15AM 55.9954 -19.9730 287° West  Level FlightAware Approximate
11:16AM 56.0255 -20.1787 284° West  Level FlightAware Approximate
11:17AM 56.0546 -20.3850 284° West  Level FlightAware Approximate
11:18AM 56.0833 -20.5915 284° West  Level FlightAware Approximate
11:19AM 56.1117 -20.7984 284° West  Level FlightAware Approximate
11:20AM 56.1755 -21.2718 283° West 438 504 34,000  Level FlightAware Transoceanic
11:21AM 56.2034 -21.4849 283° West 438 504 34,000  Level FlightAware Transoceanic
11:22AM 56.2310 -21.6983 283° West 438 504 34,000  Level FlightAware Transoceanic
11:23AM 56.2583 -21.9120 283° West 438 504 34,000  Level FlightAware Transoceanic
11:24AM 56.2851 -22.1260 283° West 438 504 34,000  Level FlightAware Transoceanic
11:25AM 56.3116 -22.3403 282° West 438 504 34,000  Level FlightAware Transoceanic
11:26AM 56.3378 -22.5549 282° West 438 504 34,000  Level FlightAware Transoceanic
11:27AM 56.3635 -22.7698 282° West 438 504 34,000  Level FlightAware Transoceanic
11:28AM 56.3889 -22.9849 282° West 438 504 34,000  Level FlightAware Transoceanic
11:29AM 56.4139 -23.2004 282° West 438 504 34,000  Level FlightAware Transoceanic
11:30AM 56.4385 -23.4161 282° West 438 504 34,000  Level FlightAware Transoceanic
11:31AM 56.4628 -23.6322 281° West 438 504 34,000  Level FlightAware Transoceanic
11:32AM 56.4867 -23.8485 281° West 438 504 34,000  Level FlightAware Transoceanic
11:33AM 56.5102 -24.0650 281° West 438 504 34,000  Level FlightAware Transoceanic
11:34AM 56.5333 -24.2819 281° West 438 504 34,000  Level FlightAware Transoceanic
11:35AM 56.5561 -24.4989 281° West 438 504 34,000  Level FlightAware Transoceanic
11:36AM 56.5784 -24.7163 280° West 438 504 34,000  Level FlightAware Transoceanic
11:37AM 56.6004 -24.9339 280° West 438 504 34,000  Level FlightAware Transoceanic
11:38AM 56.6221 -25.1518 280° West 438 504 34,000  Level FlightAware Transoceanic
11:39AM 56.6433 -25.3699 280° West 438 504 34,000  Level FlightAware Transoceanic
11:40AM 56.6642 -25.5882 280° West 438 504 34,000  Level FlightAware Transoceanic
11:41AM 56.6846 -25.8068 280° West 438 504 34,000  Level FlightAware Transoceanic
11:42AM 56.7047 -26.0256 279° West 438 504 34,000  Level FlightAware Transoceanic
11:43AM 56.7244 -26.2447 279° West 438 504 34,000  Level FlightAware Transoceanic
11:44AM 56.7437 -26.4640 279° West 438 504 34,000  Level FlightAware Transoceanic
11:45AM 56.7627 -26.6835 279° West 438 504 34,000  Level FlightAware Transoceanic
11:46AM 56.7812 -26.9032 279° West 438 504 34,000  Level FlightAware Transoceanic
11:47AM 56.7994 -27.1231 278° West 438 504 34,000  Level FlightAware Transoceanic
11:48AM 56.8171 -27.3433 278° West 438 504 34,000  Level FlightAware Transoceanic
11:49AM 56.8345 -27.5637 278° West 438 504 34,000  Level FlightAware Transoceanic
11:50AM 56.8515 -27.7842 278° West 438 504 34,000  Level FlightAware Transoceanic
11:51AM 56.8681 -28.0050 278° West 438 504 34,000  Level FlightAware Transoceanic
11:52AM 56.8843 -28.2259 278° West 438 504 34,000  Level FlightAware Transoceanic
11:53AM 56.9002 -28.4471 277° West 438 504 34,000  Level FlightAware Transoceanic
11:54AM 56.9156 -28.6684 277° West 438 504 34,000  Level FlightAware Transoceanic
11:55AM 56.9307 -28.8899 277° West 438 504 34,000  Level FlightAware Transoceanic
11:56AM 56.9453 -29.1116 277° West 438 504 34,000  Level FlightAware Transoceanic
11:57AM 56.9596 -29.3334 277° West 438 504 34,000  Level FlightAware Transoceanic
11:58AM 56.9734 -29.5555 276° West 438 504 34,000  Level FlightAware Transoceanic
11:59AM 56.9869 -29.7777 276° West 438 504 34,000  Level FlightAware Transoceanic
12:00PM 56.9997 -29.9946 276° West  Level FlightAware Approximate
12:01PM 57.0122 -30.2116 276° West  Level FlightAware Approximate
12:02PM 56.9879 -30.2060 264° West  Level FlightAware Approximate
12:03PM 56.9748 -30.4228 264° West  Level FlightAware Approximate
12:04PM 56.9613 -30.6394 264° West  Level FlightAware Approximate
12:05PM 56.9474 -30.8559 263° West  Level FlightAware Approximate
12:06PM 56.9332 -31.0721 263° West  Level FlightAware Approximate
12:07PM 56.9186 -31.2883 263° West  Level FlightAware Approximate
12:08PM 56.9036 -31.5042 263° West  Level FlightAware Approximate
12:09PM 56.8883 -31.7200 263° West  Level FlightAware Approximate
12:10PM 56.8725 -31.9356 262° West  Level FlightAware Approximate
12:11PM 56.8564 -32.1510 262° West  Level FlightAware Approximate
12:12PM 56.8400 -32.3662 262° West  Level FlightAware Approximate
12:13PM 56.8232 -32.5812 262° West  Level FlightAware Approximate
12:14PM 56.8060 -32.7961 262° West  Level FlightAware Approximate
12:15PM 56.7884 -33.0107 262° West  Level FlightAware Approximate
12:16PM 56.7704 -33.2251 261° West  Level FlightAware Approximate
12:17PM 56.7521 -33.4394 261° West  Level FlightAware Approximate
12:18PM 56.7335 -33.6534 261° West  Level FlightAware Approximate
12:19PM 56.7144 -33.8672 261° West  Level FlightAware Approximate
12:20PM 56.6950 -34.0808 261° West  Level FlightAware Approximate
12:21PM 56.6752 -34.2941 261° West  Level FlightAware Approximate
12:22PM 56.6551 -34.5073 260° West  Level FlightAware Approximate
12:23PM 56.6346 -34.7202 260° West  Level FlightAware Approximate
12:24PM 56.6137 -34.9328 260° West  Level FlightAware Approximate
12:25PM 56.5925 -35.1453 260° West  Level FlightAware Approximate
12:26PM 56.5709 -35.3574 260° West  Level FlightAware Approximate
12:27PM 56.5490 -35.5694 259° West  Level FlightAware Approximate
12:28PM 56.5266 -35.7811 259° West  Level FlightAware Approximate
12:29PM 56.5040 -35.9925 259° West  Level FlightAware Approximate
12:30PM 56.4809 -36.2038 259° West  Level FlightAware Approximate
12:31PM 56.4576 -36.4147 259° West  Level FlightAware Approximate
12:32PM 56.4338 -36.6254 259° West  Level FlightAware Approximate
12:33PM 56.4097 -36.8358 258° West  Level FlightAware Approximate
12:34PM 56.3853 -37.0459 258° West  Level FlightAware Approximate
12:35PM 56.3605 -37.2558 258° West  Level FlightAware Approximate
12:36PM 56.3353 -37.4654 258° West  Level FlightAware Approximate
12:37PM 56.3098 -37.6747 258° West  Level FlightAware Approximate
12:38PM 56.2839 -37.8838 258° West  Level FlightAware Approximate
12:39PM 56.2577 -38.0925 257° West  Level FlightAware Approximate
12:40PM 56.2311 -38.3010 257° West  Level FlightAware Approximate
12:41PM 56.2042 -38.5091 257° West  Level FlightAware Approximate
12:42PM 56.1769 -38.7170 257° West  Level FlightAware Approximate
12:43PM 56.1493 -38.9246 257° West  Level FlightAware Approximate
12:44PM 56.1213 -39.1319 256° West  Level FlightAware Approximate
12:45PM 56.0930 -39.3389 256° West  Level FlightAware Approximate
12:46PM 56.0644 -39.5455 256° West  Level FlightAware Approximate
12:47PM 56.0354 -39.7519 256° West  Level FlightAware Approximate
12:48PM 56.0060 -39.9580 256° West  Level FlightAware Approximate
12:49PM 55.9753 -40.1632 255° West  Level FlightAware Approximate
12:50PM 55.9439 -40.3680 255° West  Level FlightAware Approximate
12:51PM 55.9123 -40.5724 255° West  Level FlightAware Approximate
12:52PM 55.8802 -40.7766 254° West  Level FlightAware Approximate
12:53PM 55.8479 -40.9803 254° West  Level FlightAware Approximate
12:54PM 55.8152 -41.1838 254° West  Level FlightAware Approximate
12:55PM 55.7821 -41.3868 254° West  Level FlightAware Approximate
12:56PM 55.7487 -41.5896 254° West  Level FlightAware Approximate
12:57PM 55.7150 -41.7920 254° West  Level FlightAware Approximate
12:58PM 55.6810 -41.9940 253° West  Level FlightAware Approximate
12:59PM 55.6466 -42.1957 253° West  Level FlightAware Approximate
01:00PM 55.6119 -42.3970 253° West  Level FlightAware Approximate
01:01PM 55.5769 -42.5980 253° West  Level FlightAware Approximate
01:02PM 55.5415 -42.7986 253° West  Level FlightAware Approximate
01:03PM 55.5059 -42.9989 253° West  Level FlightAware Approximate
01:04PM 55.4698 -43.1988 252° West  Level FlightAware Approximate
01:05PM 55.4335 -43.3983 252° West  Level FlightAware Approximate
01:06PM 55.3968 -43.5975 252° West  Level FlightAware Approximate
01:07PM 55.3599 -43.7963 252° West  Level FlightAware Approximate
01:08PM 55.3226 -43.9947 252° West  Level FlightAware Approximate
01:09PM 55.2849 -44.1927 252° West  Level FlightAware Approximate
01:10PM 55.2470 -44.3904 251° West  Level FlightAware Approximate
01:11PM 55.2087 -44.5877 251° West  Level FlightAware Approximate
01:12PM 55.1701 -44.7846 251° West  Level FlightAware Approximate
01:13PM 55.1312 -44.9811 251° West  Level FlightAware Approximate
01:14PM 55.0920 -45.1772 251° West  Level FlightAware Approximate
01:15PM 55.0525 -45.3730 251° West  Level FlightAware Approximate
01:16PM 55.0126 -45.5683 250° West  Level FlightAware Approximate
01:17PM 54.9725 -45.7633 250° West  Level FlightAware Approximate
01:18PM 54.9320 -45.9579 250° West  Level FlightAware Approximate
01:19PM 54.8913 -46.1521 250° West  Level FlightAware Approximate
01:20PM 54.8502 -46.3459 250° West  Level FlightAware Approximate
01:21PM 54.8088 -46.5393 250° West  Level FlightAware Approximate
01:22PM 54.7671 -46.7323 250° West  Level FlightAware Approximate
01:23PM 54.7251 -46.9249 249° West  Level FlightAware Approximate
01:24PM 54.6828 -47.1171 249° West  Level FlightAware Approximate
01:25PM 54.6401 -47.3089 249° West  Level FlightAware Approximate
01:26PM 54.5972 -47.5003 249° West  Level FlightAware Approximate
01:27PM 54.5540 -47.6913 249° West  Level FlightAware Approximate
01:28PM 54.5105 -47.8819 249° West  Level FlightAware Approximate
01:29PM 54.4667 -48.0720 248° West  Level FlightAware Approximate
01:30PM 54.4226 -48.2618 248° West  Level FlightAware Approximate
01:31PM 54.3782 -48.4512 248° West  Level FlightAware Approximate
01:32PM 54.3334 -48.6401 248° West  Level FlightAware Approximate
01:33PM 54.2884 -48.8287 248° West  Level FlightAware Approximate
01:34PM 54.2431 -49.0168 248° West  Level FlightAware Approximate
01:35PM 54.1976 -49.2045 248° West  Level FlightAware Approximate
01:36PM 54.1517 -49.3918 247° West  Level FlightAware Approximate
01:37PM 54.1055 -49.5787 247° West  Level FlightAware Approximate
01:38PM 54.0591 -49.7652 247° West  Level FlightAware Approximate
01:39PM 54.0123 -49.9512 247° West  Level FlightAware Approximate
01:40PM 53.9681 -50.1389 249° West  Level FlightAware Approximate
01:41PM 53.9246 -50.3268 249° West  Level FlightAware Approximate
01:42PM 53.8809 -50.5143 248° West  Level FlightAware Approximate
01:43PM 53.8368 -50.7015 248° West  Level FlightAware Approximate
01:44PM 53.7924 -50.8882 248° West  Level FlightAware Approximate
01:45PM 53.7478 -51.0746 248° West  Level FlightAware Approximate
01:46PM 53.7029 -51.2605 248° West  Level FlightAware Approximate
01:47PM 53.6577 -51.4461 248° West  Level FlightAware Approximate
01:48PM 53.6121 -51.6312 248° West  Level FlightAware Approximate
01:49PM 53.5664 -51.8160 247° West  Level FlightAware Approximate
01:50PM 53.5203 -52.0004 247° West  Level FlightAware Approximate
01:51PM 53.4739 -52.1843 247° West  Level FlightAware Approximate
01:52PM 53.4273 -52.3679 247° West  Level FlightAware Approximate
01:53PM 53.3804 -52.5510 247° West  Level FlightAware Approximate
01:54PM 53.3332 -52.7337 247° West  Level FlightAware Approximate
01:55PM 53.2857 -52.9161 247° West  Level FlightAware Approximate
01:56PM 53.2379 -53.0980 246° West  Level FlightAware Approximate
01:56PM 53.1667 -53.6000 279° West 450 518 35,000  Level Gander Center
01:57PM 53.1899 -53.2795 246° West  Level FlightAware Approximate
01:57PM 53.1333 -53.8000 255° West 450 518 35,000  Level Gander Center
01:58PM 53.1416 -53.4607 246° West  Level FlightAware Approximate
01:58PM 53.0833 -54.0167 249° West 450 518 35,000  Level Gander Center
01:59PM 53.0930 -53.6414 246° West  Level FlightAware Approximate
01:59PM 53.0167 -54.1833 236° Southwest 450 518 35,000  Level Gander Center
02:00PM 53.0441 -53.8217 246° West  Level FlightAware Approximate
02:00PM 52.9667 -54.3667 246° West 450 518 35,000  Level Gander Center
02:01PM 53.0621 -54.0169 279° West  Level FlightAware Approximate
02:01PM 52.9000 -54.5333 236° Southwest 450 518 35,000  Level Gander Center
02:02PM 52.8333 -54.7500 243° Southwest 450 518 35,000  Level Gander Center
02:03PM 52.7833 -54.9167 244° Southwest 450 518 35,000  Level Gander Center
02:04PM 52.7000 -55.1167 236° Southwest 450 518 35,000  Level Gander Center
02:05PM 52.6500 -55.3000 246° West 450 518 35,000  Level Gander Center
02:06PM 52.5833 -55.5000 241° Southwest 450 518 35,000  Level Gander Center
02:07PM 52.5333 -55.6667 244° Southwest 450 518 35,000  Level Gander Center
02:08PM 52.4667 -55.8500 239° Southwest 450 518 35,000  Level Gander Center
02:09PM 52.4000 -56.0167 237° Southwest 460 529 35,000  Level Gander Center
02:10PM 52.3333 -56.1833 237° Southwest 450 518 35,000  Level Gander Center
02:11PM 52.2667 -56.3833 241° Southwest 450 518 35,000  Level Gander Center
02:12PM 52.2000 -56.5333 234° Southwest 440 506 35,000  Level Gander Center
02:13PM 52.1333 -56.7000 237° Southwest 450 518 35,000  Level Gander Center
02:14PM 52.0833 -56.9000 248° West 450 518 35,000  Level Gander Center
02:15PM 52.0167 -57.0667 237° Southwest 440 506 35,000  Level Gander Center
02:16PM 51.9500 -57.2333 237° Southwest 440 506 35,000  Level Gander Center
02:17PM 51.9000 -57.4000 244° Southwest 440 506 35,000  Level Gander Center
02:18PM 51.8167 -57.5833 234° Southwest 440 506 35,000  Level Gander Center
02:19PM 51.7500 -57.7500 237° Southwest 440 506 35,000  Level Gander Center
02:20PM 51.7000 -57.9167 244° Southwest 440 506 35,000  Level Gander Center
02:21PM 51.6333 -58.0833 237° Southwest 440 506 35,000  Level Gander Center
02:22PM 51.5667 -58.2333 234° Southwest 440 506 35,000  Level Gander Center
02:23PM 51.5000 -58.4000 237° Southwest 440 506 35,000  Level Gander Center
02:24PM 51.4500 -58.5667 244° Southwest 440 506 35,000  Level Gander Center
02:25PM 51.3667 -58.7333 231° Southwest 440 506 35,000  Level Gander Center
02:26PM 51.3000 -58.9000 237° Southwest 440 506 35,000  Level Gander Center
02:27PM 51.2333 -59.0667 237° Southwest 440 506 35,000  Level Gander Center
02:28PM 51.1500 -59.2333 231° Southwest 430 495 35,000 420 Level Gander Center
02:29PM 51.0667 -59.3667 225° Southwest 440 506 35,900 840 Climbing Gander Center
02:30PM 51.0000 -59.5000 232° Southwest 440 506 36,700 720 Climbing Gander Center
02:31PM 50.9167 -59.6667 232° Southwest 450 518 37,400 600 Climbing Gander Center
02:32PM 50.8333 -59.8000 225° Southwest 440 506 38,000 300 Climbing Gander Center
02:33PM 50.7500 -59.9667 232° Southwest 440 506 38,000  Level Gander Center
02:34PM 50.6667 -60.1000 225° Southwest 430 495 38,000  Level Gander Center
02:35PM 50.6000 -60.2333 232° Southwest 440 506 38,000  Level Gander Center
02:36PM 50.5000 -60.3833 224° Southwest 440 506 38,000  Level Gander Center
02:37PM 50.4333 -60.5167 232° Southwest 430 495 38,000  Level Gander Center
02:38PM 50.3500 -60.6833 232° Southwest 440 506 38,000 -60 Level Gander Center
02:39PM 50.2667 -60.8167 226° Southwest 450 518 37,900 -360 Descending Gander Center
02:40PM 50.1667 -60.9667 224° Southwest 450 518 37,300 -600 Descending Gander Center
02:41PM 50.1000 -61.1000 232° Southwest 440 506 36,800 -480 Descending Gander Center
02:42PM 50.0167 -61.2333 226° Southwest 440 506 36,400 -420 Descending Gander Center
02:43PM 49.9333 -61.3833 229° Southwest 420 483 36,000 -240 Descending Gander Center
02:44PM 49.8500 -61.5167 226° Southwest 430 495 36,000  Level Gander Center
02:45PM 49.7667 -61.6667 229° Southwest 430 495 36,000  Level Gander Center
02:46PM 49.7000 -61.8000 232° Southwest 430 495 36,000  Level Gander Center
02:47PM 49.6167 -61.9333 226° Southwest 430 495 36,000  Level Gander Center
02:48PM 49.5333 -62.0500 222° Southwest 430 495 36,000  Level Gander Center
02:49PM 49.4500 -62.1833 226° Southwest 430 495 36,000  Level Gander Center
02:50PM 49.3667 -62.3333 230° Southwest 430 495 36,000  Level Gander Center
02:51PM 49.3000 -62.4667 233° Southwest 430 495 36,000  Level Gander Center
02:52PM 49.2167 -62.6167 230° Southwest 430 495 36,000  Level Gander Center
02:53PM 49.1167 -62.7333 217° Southwest 430 495 36,000  Level Gander Center
02:54PM 49.0333 -62.8667 226° Southwest 430 495 36,000  Level Gander Center
02:55PM 48.9500 -62.9833 223° Southwest 430 495 36,000  Level Gander Center
02:56PM 48.8667 -63.1333 230° Southwest 430 495 36,000  Level Gander Center
02:57PM 48.8000 -63.2667 233° Southwest 430 495 36,000  Level Gander Center
02:58PM 48.7167 -63.3833 223° Southwest 440 506 36,000  Level Gander Center
02:59PM 48.6333 -63.5333 230° Southwest 430 495 36,000  Level Gander Center
03:00PM 48.5333 -63.6500 218° Southwest 430 495 36,000  Level Gander Center
03:01PM 48.4500 -63.7833 227° Southwest 420 483 36,000  Level Gander Center
03:02PM 48.3667 -63.9000 223° Southwest 430 495 36,000  Level Gander Center
03:03PM 48.2833 -64.0500 230° Southwest 420 483 36,000  Level Gander Center
03:04PM 48.2167 -64.1667 229° Southwest 430 495 36,000  Level Gander Center
03:05PM 48.1167 -64.3167 225° Southwest 430 495 36,000  Level Gander Center
03:06PM 48.0333 -64.4333 223° Southwest 430 495 36,000  Level Gander Center
03:07PM 47.9667 -64.5500 230° Southwest 420 483 36,000  Level Gander Center
03:08PM 47.8833 -64.6667 223° Southwest 420 483 36,000  Level Gander Center
03:09PM 47.7667 -64.8500 227° Southwest 420 483 36,000  Level Moncton Center
03:10PM 47.6833 -64.9667 223° Southwest 420 483 36,000  Level Moncton Center
03:11PM 47.6000 -65.1000 227° Southwest 430 495 36,000  Level Moncton Center
03:12PM 47.5167 -65.2167 223° Southwest 430 495 36,000  Level Moncton Center
03:13PM 47.4333 -65.3333 223° Southwest 430 495 36,000  Level Moncton Center
03:14PM 47.3500 -65.4667 227° Southwest 430 495 36,000  Level Moncton Center
03:15PM 47.2500 -65.5833 218° Southwest 430 495 36,000  Level Moncton Center
03:16PM 47.1667 -65.7000 224° Southwest 430 495 36,000  Level Moncton Center
03:17PM 47.0667 -65.8500 226° Southwest 430 495 36,000  Level Moncton Center
03:18PM 47.0000 -65.9500 226° Southwest 430 495 36,000  Level Moncton Center
03:19PM 46.9167 -66.0667 224° Southwest 420 483 36,000  Level Moncton Center
03:20PM 46.8333 -66.2000 228° Southwest 430 495 36,000  Level Moncton Center
03:21PM 46.7500 -66.3000 219° Southwest 420 483 36,000  Level Moncton Center
03:22PM 46.6667 -66.4500 231° Southwest 420 483 36,000  Level Moncton Center
03:23PM 46.5833 -66.5333 215° Southwest 420 483 36,000  Level Moncton Center
03:24PM 46.4833 -66.6833 226° Southwest 420 483 36,000  Level Moncton Center
03:25PM 46.4000 -66.7833 220° Southwest 420 483 36,000  Level Moncton Center
03:26PM 46.3167 -66.9167 228° Southwest 420 483 36,000  Level Moncton Center
03:32PM 45.8549 -67.5527 228° Southwest 410 472 36,000  Level FlightAware ADS-B
03:32PM 45.8064 -67.6173 223° Southwest 410 472 36,000  Level FlightAware ADS-B
03:33PM 45.7597 -67.6782 222° Southwest 410 472 36,000  Level FlightAware ADS-B
03:35PM 45.6088 -67.8797 223° Southwest 404 465 36,000  Level FlightAware ADS-B
03:35PM 45.5718 -67.9283 223° Southwest 403 464 36,000  Level FlightAware ADS-B
03:36PM 45.5718 -67.9283 223° Southwest 401 461 36,000  Level FlightAware ADS-B
03:37PM 45.4659 -68.0661 222° Southwest 401 461 36,000  Level FlightAware ADS-B
03:37PM 45.4202 -68.1268 223° Southwest 402 463 36,000  Level FlightAware ADS-B
03:38PM 45.3364 -68.2361 223° Southwest 404 465 36,000  Level FlightAware ADS-B
03:39PM 45.2910 -68.2955 223° Southwest 404 465 36,000  Level FlightAware ADS-B (KBGR)
03:39PM 45.2484 -68.3510 223° Southwest 403 464 36,000  Level FlightAware ADS-B
03:40PM 45.1982 -68.4150 222° Southwest 402 463 36,000  Level FlightAware ADS-B (CYQI)
03:40PM 45.1526 -68.4753 223° Southwest 401 461 36,000  Level FlightAware ADS-B
03:41PM 45.1106 -68.5282 222° Southwest 399 459 36,000  Level FlightAware ADS-B (CYQI)
03:42PM 45.0565 -68.5984 223° Southwest 399 459 36,000  Level FlightAware ADS-B
03:42PM 45.0071 -68.6613 222° Southwest 399 459 36,000  Level FlightAware ADS-B (CYQI)
03:43PM 44.9515 -68.7333 222° Southwest 400 460 36,000  Level FlightAware ADS-B (CYQI)
03:43PM 44.9033 -68.7944 222° Southwest 399 459 36,000  Level FlightAware ADS-B
03:44PM 44.8491 -68.8637 222° Southwest 396 456 36,000  Level FlightAware ADS-B
03:45PM 44.8069 -68.9174 222° Southwest 396 456 36,000  Level FlightAware ADS-B
03:45PM 44.7663 -68.9692 222° Southwest 397 457 36,000  Level FlightAware ADS-B
03:46PM 44.6824 -69.0746 222° Southwest 400 460 36,000  Level FlightAware ADS-B
03:47PM 44.6270 -69.1442 222° Southwest 404 465 36,000  Level FlightAware ADS-B
03:48PM 44.4944 -69.3102 222° Southwest 404 465 36,000  Level FlightAware ADS-B
03:50PM 44.4278 -69.3937 222° Southwest 404 465 36,000  Level FlightAware ADS-B (KBGR)
03:51PM 44.2863 -69.5688 222° Southwest 405 466 36,000  Level FlightAware ADS-B (CYQI)
03:51PM 44.2333 -69.6349 222° Southwest 406 467 36,000  Level FlightAware ADS-B (CYQI)
03:52PM 44.2333 -69.6349 222° Southwest 407 468 36,000  Level FlightAware ADS-B (CYQI)
03:54PM 44.0609 -69.8462 221° Southwest 407 468 36,000  Level FlightAware ADS-B (CYQI)
03:54PM 44.0390 -69.8737 222° Southwest 407 468 36,000  Level FlightAware ADS-B (KBOS)
03:55PM 43.9926 -69.9290 221° Southwest 406 467 36,000  Level FlightAware ADS-B (KBOS)
03:56PM 43.8138 -70.1469 221° Southwest 407 468 36,000  Level FlightAware ADS-B (KBOS)
03:58PM 43.9001 -70.0425 41° Northeast 407 468 36,000  Level FlightAware ADS-B (CYQI)
04:00PM 43.4709 -70.5583 221° Southwest 410 472 36,000  Level FlightAware ADS-B (KBOS)
04:02PM 43.3277 -70.6621 208° Southwest 435 501 36,000  Level FlightAware ADS-B (KBOS)
04:03PM 43.1510 -70.7474 199° South 427 491 36,000  Level FlightAware ADS-B (KBOS)
04:04PM 43.0904 -70.7776 200° South 424 488 36,000  Level FlightAware ADS-B (KBOS)
04:04PM 43.0348 -70.8046 200° South 422 486 36,000  Level FlightAware ADS-B (KBOS)
04:05PM 42.9821 -70.8307 200° South 422 486 36,000  Level FlightAware ADS-B (KBOS)
04:05PM 42.9226 -70.8602 200° South 418 481 36,000  Level FlightAware ADS-B (KBOS)
04:06PM 42.8735 -70.8895 204° Southwest 415 478 36,000  Level FlightAware ADS-B (KBOS)
04:06PM 42.8172 -70.9265 206° Southwest 412 474 36,000  Level FlightAware ADS-B (KBOS)
04:07PM 42.7587 -70.9656 206° Southwest 411 473 36,000  Level FlightAware ADS-B
04:08PM 42.7062 -71.0014 207° Southwest 411 473 36,000  Level FlightAware ADS-B (KBOS)
04:08PM 42.6531 -71.0369 206° Southwest 412 474 36,000  Level FlightAware ADS-B (KBOS)
04:09PM 42.5658 -71.0948 206° Southwest 412 474 36,000  Level FlightAware ADS-B (KBOS)
04:09PM 42.5085 -71.1319 206° Southwest 412 474 36,000  Level FlightAware ADS-B (KBOS)
04:10PM 42.4602 -71.1632 206° Southwest 412 474 36,000  Level FlightAware ADS-B (KBOS)
04:11PM 42.3940 -71.2067 206° Southwest 411 473 36,000 -480 Level FlightAware ADS-B (KBOS)
04:12PM 42.2902 -71.2746 206° Southwest 410 472 35,300 -840 Descending FlightAware ADS-B (KBOS)
04:12PM 42.2390 -71.3078 206° Southwest 408 470 34,700 -780 Descending FlightAware ADS-B (KOWD)
04:14PM 42.0651 -71.4206 206° Southwest 393 452 33,600 -660 Descending FlightAware ADS-B (KOWD)
04:14PM 42.0159 -71.4521 205° Southwest 386 444 33,300 -600 Descending FlightAware ADS-B (KOWD)
04:15PM 41.9505 -71.4942 206° Southwest 380 437 32,900 -1,380 Descending FlightAware ADS-B (KOWD)
04:16PM 41.9505 -71.4942 206° Southwest 371 427 31,700 -2,400 Descending FlightAware ADS-B (KOWD)
04:16PM 41.8567 -71.5536 205° Southwest 364 419 30,500 -2,400 Descending FlightAware ADS-B (KOWD)
04:17PM 41.8295 -71.5709 205° Southwest 356 410 29,300 -3,240 Descending FlightAware ADS-B (KOWD)
04:17PM 41.7459 -71.6250 206° Southwest 361 415 26,600 -3,000 Descending FlightAware ADS-B
04:18PM 41.6496 -71.6874 206° Southwest 369 425 24,100 -900 Descending FlightAware ADS-B
04:20PM 41.4647 -71.8038 205° Southwest 364 419 24,000 -60 Descending FlightAware ADS-B (KSNC)
04:21PM 41.4072 -71.8395 205° Southwest 366 421 24,000  Level FlightAware ADS-B (KSNC)
04:21PM 41.3727 -71.8619 206° Southwest 368 423 24,000  Level FlightAware ADS-B
04:22PM 41.3340 -71.8862 205° Southwest 365 420 24,000 -540 Level FlightAware ADS-B (KSNC)
04:23PM 41.2301 -71.9847 216° Southwest 339 390 23,200 -1,140 Descending FlightAware ADS-B (KSNC)
04:24PM 41.1978 -72.0589 240° Southwest 317 365 22,100 -1,860 Descending FlightAware ADS-B (KSNC)
04:24PM 41.1762 -72.1198 245° Southwest 302 348 20,700 -2,880 Descending FlightAware ADS-B (KSNC)
04:25PM 41.1536 -72.1835 245° Southwest 317 365 18,600 -3,240 Descending FlightAware ADS-B (KSNC)
04:26PM 41.1518 -72.1887 245° Southwest 314 361 16,900 -2,700 Descending FlightAware ADS-B (KSNC)
04:26PM 41.1046 -72.3184 244° Southwest 306 352 15,100 -2,640 Descending FlightAware ADS-B (KSNC)
04:27PM 41.0881 -72.3636 244° Southwest 300 345 13,800 -2,520 Descending FlightAware ADS-B (KSNC)
04:27PM 41.0645 -72.4299 245° Southwest 305 351 12,300 -1,440 Descending FlightAware ADS-B (KSNC)
04:28PM 41.0400 -72.4971 244° Southwest 304 350 12,000 -300 Descending FlightAware ADS-B (KSNC)
04:29PM 41.0219 -72.5471 244° Southwest 302 348 12,000  Level FlightAware ADS-B (KSNC)
04:29PM 41.0023 -72.6008 244° Southwest 303 349 12,000  Level FlightAware ADS-B (KSNC)
04:31PM 40.9226 -72.8055 243° Southwest 252 290 12,000 -540 Level FlightAware ADS-B (KSNC)
04:33PM 40.8344 -72.8897 216° Southwest 245 282 10,100 -1,320 Descending FlightAware ADS-B (KSNC)
04:34PM 40.7944 -72.9318 219° Southwest 245 282 9,100 -1,140 Descending FlightAware ADS-B (KSNC)
04:36PM 40.7097 -73.0938 235° Southwest 236 272 6,800 -1,140 Descending FlightAware ADS-B (KSNC)
04:37PM 40.7000 -73.2000 235° Southwest 239 275 5,100 -840 Descending New York TRACON
04:38PM 40.7167 -73.2833 285° West 238 274 5,000 -480 Descending New York TRACON
04:39PM 40.7167 -73.3667 270° West 233 268 4,200 -480 Descending New York TRACON
04:40PM 40.7333 -73.4500 285° West 237 273 4,100 -360 Descending New York TRACON
04:41PM 40.7500 -73.5500 282° West 226 260 3,500 -840 Descending New York TRACON
04:42PM 40.7667 -73.6167 288° West 202 232 2,400 -840 Descending New York TRACON
04:43PM 40.7500 -73.6833 252° West 209 241 2,000 -540 Descending New York TRACON
04:44PM 40.7000 -73.7167 207° Southwest 175 201 1,400 -780 Descending New York TRACON
04:45PM 40.6667 -73.7333 201° Southwest 155 178 500 -900 Descending New York TRACON
04:47PM 40.6333 -73.7667 North  Level FlightAware Approximate
04:54PM 40.6398 -73.7789 North  Level Estimated